sensor_id;sensor_type;location;lat;lon;timestamp;P1;durP1;ratioP1;P2;durP2;ratioP2
13432;SDS011;6789;47.678;9.158;2023-05-29T00:04:06;6.72;;;4.10;;
13432;SDS011;6789;47.678;9.158;2023-05-29T00:08:58;7.07;;;4.20;;
13432;SDS011;6789;47.678;9.158;2023-05-29T00:19:09;6.38;;;3.90;;
13432;SDS011;6789;47.678;9.158;2023-05-29T00:30:30;8.73;;;4.45;;
13432;SDS011;6789;47.678;9.158;2023-05-29T00:35:22;7.80;;;4.45;;
13432;SDS011;6789;47.678;9.158;2023-05-29T00:40:14;7.63;;;4.47;;
13432;SDS011;6789;47.678;9.158;2023-05-29T00:45:20;8.43;;;4.57;;
13432;SDS011;6789;47.678;9.158;2023-05-29T00:50:25;6.63;;;4.20;;
13432;SDS011;6789;47.678;9.158;2023-05-29T00:55:18;9.60;;;4.68;;
13432;SDS011;6789;47.678;9.158;2023-05-29T01:00:44;6.95;;;4.00;;
13432;SDS011;6789;47.678;9.158;2023-05-29T01:06:02;7.53;;;4.28;;
13432;SDS011;6789;47.678;9.158;2023-05-29T01:11:15;8.75;;;4.00;;
13432;SDS011;6789;47.678;9.158;2023-05-29T01:16:55;8.20;;;4.15;;
13432;SDS011;6789;47.678;9.158;2023-05-29T01:27:32;6.78;;;3.92;;
13432;SDS011;6789;47.678;9.158;2023-05-29T01:32:26;8.70;;;4.60;;
13432;SDS011;6789;47.678;9.158;2023-05-29T01:37:18;7.95;;;4.13;;
13432;SDS011;6789;47.678;9.158;2023-05-29T01:42:27;6.70;;;3.88;;
13432;SDS011;6789;47.678;9.158;2023-05-29T01:47:19;7.35;;;4.28;;
13432;SDS011;6789;47.678;9.158;2023-05-29T01:52:12;9.02;;;5.00;;
13432;SDS011;6789;47.678;9.158;2023-05-29T01:57:04;8.70;;;4.47;;
13432;SDS011;6789;47.678;9.158;2023-05-29T02:01:57;7.03;;;3.95;;
13432;SDS011;6789;47.678;9.158;2023-05-29T02:06:49;8.93;;;4.40;;
13432;SDS011;6789;47.678;9.158;2023-05-29T02:11:41;7.63;;;4.57;;
13432;SDS011;6789;47.678;9.158;2023-05-29T02:16:50;7.68;;;4.35;;
13432;SDS011;6789;47.678;9.158;2023-05-29T02:21:42;8.57;;;4.80;;
13432;SDS011;6789;47.678;9.158;2023-05-29T02:26:34;6.00;;;4.03;;
13432;SDS011;6789;47.678;9.158;2023-05-29T02:31:29;10.20;;;5.37;;
13432;SDS011;6789;47.678;9.158;2023-05-29T02:36:21;8.18;;;4.30;;
13432;SDS011;6789;47.678;9.158;2023-05-29T02:41:13;8.50;;;4.17;;
13432;SDS011;6789;47.678;9.158;2023-05-29T02:46:09;6.30;;;4.50;;
13432;SDS011;6789;47.678;9.158;2023-05-29T02:51:01;9.70;;;4.73;;
13432;SDS011;6789;47.678;9.158;2023-05-29T02:55:53;7.03;;;4.87;;
13432;SDS011;6789;47.678;9.158;2023-05-29T03:00:46;8.13;;;4.47;;
13432;SDS011;6789;47.678;9.158;2023-05-29T03:05:38;9.53;;;4.83;;
13432;SDS011;6789;47.678;9.158;2023-05-29T03:10:30;8.47;;;4.53;;
13432;SDS011;6789;47.678;9.158;2023-05-29T03:15:22;10.57;;;4.80;;
13432;SDS011;6789;47.678;9.158;2023-05-29T03:20:13;7.73;;;4.17;;
13432;SDS011;6789;47.678;9.158;2023-05-29T03:25:06;8.17;;;4.83;;
13432;SDS011;6789;47.678;9.158;2023-05-29T03:29:59;10.47;;;4.93;;
13432;SDS011;6789;47.678;9.158;2023-05-29T03:34:51;7.70;;;5.13;;
13432;SDS011;6789;47.678;9.158;2023-05-29T03:39:43;7.50;;;4.10;;
13432;SDS011;6789;47.678;9.158;2023-05-29T03:44:34;8.43;;;4.77;;
13432;SDS011;6789;47.678;9.158;2023-05-29T03:49:26;12.03;;;5.50;;
13432;SDS011;6789;47.678;9.158;2023-05-29T03:54:18;12.10;;;5.10;;
13432;SDS011;6789;47.678;9.158;2023-05-29T03:59:10;7.90;;;4.73;;
13432;SDS011;6789;47.678;9.158;2023-05-29T04:04:02;11.13;;;5.53;;
13432;SDS011;6789;47.678;9.158;2023-05-29T04:08:54;8.73;;;4.80;;
13432;SDS011;6789;47.678;9.158;2023-05-29T04:13:46;7.55;;;4.63;;
13432;SDS011;6789;47.678;9.158;2023-05-29T04:18:39;7.60;;;4.40;;
13432;SDS011;6789;47.678;9.158;2023-05-29T04:23:30;10.02;;;4.70;;
13432;SDS011;6789;47.678;9.158;2023-05-29T04:28:22;11.93;;;4.65;;
13432;SDS011;6789;47.678;9.158;2023-05-29T04:33:20;6.15;;;4.65;;
13432;SDS011;6789;47.678;9.158;2023-05-29T04:38:12;8.35;;;5.15;;
13432;SDS011;6789;47.678;9.158;2023-05-29T04:43:04;7.35;;;4.75;;
13432;SDS011;6789;47.678;9.158;2023-05-29T04:47:56;8.60;;;5.00;;
13432;SDS011;6789;47.678;9.158;2023-05-29T04:52:48;7.72;;;5.05;;
13432;SDS011;6789;47.678;9.158;2023-05-29T04:57:43;10.80;;;5.00;;
13432;SDS011;6789;47.678;9.158;2023-05-29T05:02:34;6.65;;;4.70;;
13432;SDS011;6789;47.678;9.158;2023-05-29T05:07:28;7.03;;;5.30;;
13432;SDS011;6789;47.678;9.158;2023-05-29T05:12:19;11.73;;;5.15;;
13432;SDS011;6789;47.678;9.158;2023-05-29T05:17:11;8.07;;;4.70;;
13432;SDS011;6789;47.678;9.158;2023-05-29T05:22:03;6.13;;;3.88;;
13432;SDS011;6789;47.678;9.158;2023-05-29T05:26:55;5.95;;;4.30;;
13432;SDS011;6789;47.678;9.158;2023-05-29T05:31:46;7.30;;;4.85;;
13432;SDS011;6789;47.678;9.158;2023-05-29T05:36:52;7.63;;;4.53;;
13432;SDS011;6789;47.678;9.158;2023-05-29T05:41:44;7.63;;;4.45;;
13432;SDS011;6789;47.678;9.158;2023-05-29T05:46:36;6.43;;;4.07;;
13432;SDS011;6789;47.678;9.158;2023-05-29T05:51:28;10.60;;;4.60;;
13432;SDS011;6789;47.678;9.158;2023-05-29T05:56:29;9.40;;;4.30;;
13432;SDS011;6789;47.678;9.158;2023-05-29T06:01:21;5.20;;;4.05;;
13432;SDS011;6789;47.678;9.158;2023-05-29T06:06:13;7.07;;;3.92;;
13432;SDS011;6789;47.678;9.158;2023-05-29T06:11:05;7.53;;;4.00;;
13432;SDS011;6789;47.678;9.158;2023-05-29T06:16:12;7.35;;;4.45;;
13432;SDS011;6789;47.678;9.158;2023-05-29T06:21:05;7.25;;;4.50;;
13432;SDS011;6789;47.678;9.158;2023-05-29T06:26:03;8.18;;;4.47;;
13432;SDS011;6789;47.678;9.158;2023-05-29T06:30:55;6.88;;;4.10;;
13432;SDS011;6789;47.678;9.158;2023-05-29T06:35:48;8.68;;;4.60;;
13432;SDS011;6789;47.678;9.158;2023-05-29T06:40:42;6.43;;;4.18;;
13432;SDS011;6789;47.678;9.158;2023-05-29T06:45:34;5.55;;;3.80;;
13432;SDS011;6789;47.678;9.158;2023-05-29T06:50:27;6.15;;;3.83;;
13432;SDS011;6789;47.678;9.158;2023-05-29T06:55:19;7.65;;;4.50;;
13432;SDS011;6789;47.678;9.158;2023-05-29T07:00:12;8.40;;;4.18;;
13432;SDS011;6789;47.678;9.158;2023-05-29T07:05:20;7.85;;;4.13;;
13432;SDS011;6789;47.678;9.158;2023-05-29T07:10:14;6.75;;;4.15;;
13432;SDS011;6789;47.678;9.158;2023-05-29T07:15:19;7.45;;;3.92;;
13432;SDS011;6789;47.678;9.158;2023-05-29T07:20:17;6.78;;;4.38;;
13432;SDS011;6789;47.678;9.158;2023-05-29T07:25:15;7.60;;;4.53;;
13432;SDS011;6789;47.678;9.158;2023-05-29T07:30:11;8.75;;;4.07;;
13432;SDS011;6789;47.678;9.158;2023-05-29T07:35:18;7.85;;;4.35;;
13432;SDS011;6789;47.678;9.158;2023-05-29T07:40:11;9.32;;;4.38;;
13432;SDS011;6789;47.678;9.158;2023-05-29T07:45:05;5.90;;;3.90;;
13432;SDS011;6789;47.678;9.158;2023-05-29T07:49:58;8.93;;;5.00;;
13432;SDS011;6789;47.678;9.158;2023-05-29T07:54:50;6.35;;;4.20;;
13432;SDS011;6789;47.678;9.158;2023-05-29T07:59:57;8.32;;;4.82;;
13432;SDS011;6789;47.678;9.158;2023-05-29T08:04:50;6.65;;;4.80;;
13432;SDS011;6789;47.678;9.158;2023-05-29T08:09:56;8.05;;;4.50;;
13432;SDS011;6789;47.678;9.158;2023-05-29T08:14:51;8.55;;;4.35;;
13432;SDS011;6789;47.678;9.158;2023-05-29T08:19:43;7.50;;;4.03;;
13432;SDS011;6789;47.678;9.158;2023-05-29T08:24:49;7.20;;;4.38;;
13432;SDS011;6789;47.678;9.158;2023-05-29T08:29:42;7.45;;;4.13;;
13432;SDS011;6789;47.678;9.158;2023-05-29T08:34:35;8.57;;;4.20;;
13432;SDS011;6789;47.678;9.158;2023-05-29T08:39:41;5.68;;;4.07;;
13432;SDS011;6789;47.678;9.158;2023-05-29T08:44:47;6.38;;;3.80;;
13432;SDS011;6789;47.678;9.158;2023-05-29T08:49:43;6.43;;;4.47;;
13432;SDS011;6789;47.678;9.158;2023-05-29T08:54:57;7.68;;;4.20;;
13432;SDS011;6789;47.678;9.158;2023-05-29T08:59:53;5.03;;;3.80;;
13432;SDS011;6789;47.678;9.158;2023-05-29T09:04:48;5.45;;;4.03;;
13432;SDS011;6789;47.678;9.158;2023-05-29T09:09:55;7.57;;;4.28;;
13432;SDS011;6789;47.678;9.158;2023-05-29T09:14:48;8.18;;;4.18;;
13432;SDS011;6789;47.678;9.158;2023-05-29T09:19:54;6.05;;;4.40;;
13432;SDS011;6789;47.678;9.158;2023-05-29T09:24:46;7.35;;;4.53;;
13432;SDS011;6789;47.678;9.158;2023-05-29T09:29:44;7.18;;;4.35;;
13432;SDS011;6789;47.678;9.158;2023-05-29T09:34:41;7.47;;;4.18;;
13432;SDS011;6789;47.678;9.158;2023-05-29T09:39:55;6.18;;;4.28;;
13432;SDS011;6789;47.678;9.158;2023-05-29T09:44:54;6.50;;;3.92;;
13432;SDS011;6789;47.678;9.158;2023-05-29T09:50:01;5.50;;;3.63;;
13432;SDS011;6789;47.678;9.158;2023-05-29T09:55:07;6.78;;;4.40;;
13432;SDS011;6789;47.678;9.158;2023-05-29T10:00:02;6.28;;;4.22;;
13432;SDS011;6789;47.678;9.158;2023-05-29T10:05:09;4.82;;;3.50;;
13432;SDS011;6789;47.678;9.158;2023-05-29T10:10:20;6.28;;;4.25;;
13432;SDS011;6789;47.678;9.158;2023-05-29T10:15:31;7.95;;;5.03;;
13432;SDS011;6789;47.678;9.158;2023-05-29T10:20:40;6.95;;;4.30;;
13432;SDS011;6789;47.678;9.158;2023-05-29T10:25:40;6.68;;;4.43;;
13432;SDS011;6789;47.678;9.158;2023-05-29T10:30:39;7.40;;;4.43;;
13432;SDS011;6789;47.678;9.158;2023-05-29T10:36:21;5.70;;;4.85;;
13432;SDS011;6789;47.678;9.158;2023-05-29T10:41:33;8.90;;;4.15;;
13432;SDS011;6789;47.678;9.158;2023-05-29T10:51:56;6.65;;;4.43;;
13432;SDS011;6789;47.678;9.158;2023-05-29T10:57:05;7.50;;;4.00;;
13432;SDS011;6789;47.678;9.158;2023-05-29T11:02:03;5.22;;;3.75;;
13432;SDS011;6789;47.678;9.158;2023-05-29T11:07:32;8.57;;;4.20;;
13432;SDS011;6789;47.678;9.158;2023-05-29T11:12:56;7.00;;;4.40;;
13432;SDS011;6789;47.678;9.158;2023-05-29T11:18:07;6.93;;;4.60;;
13432;SDS011;6789;47.678;9.158;2023-05-29T11:23:02;6.05;;;4.38;;
13432;SDS011;6789;47.678;9.158;2023-05-29T11:28:13;6.88;;;4.28;;
13432;SDS011;6789;47.678;9.158;2023-05-29T11:33:24;6.72;;;4.38;;
13432;SDS011;6789;47.678;9.158;2023-05-29T11:38:19;5.55;;;4.28;;
13432;SDS011;6789;47.678;9.158;2023-05-29T11:43:25;5.65;;;4.03;;
13432;SDS011;6789;47.678;9.158;2023-05-29T11:48:31;5.95;;;4.03;;
13432;SDS011;6789;47.678;9.158;2023-05-29T11:53:25;6.75;;;4.57;;
13432;SDS011;6789;47.678;9.158;2023-05-29T11:58:31;8.18;;;4.07;;
13432;SDS011;6789;47.678;9.158;2023-05-29T12:03:30;6.28;;;4.30;;
13432;SDS011;6789;47.678;9.158;2023-05-29T12:08:39;5.60;;;3.70;;
13432;SDS011;6789;47.678;9.158;2023-05-29T12:13:54;5.13;;;4.18;;
13432;SDS011;6789;47.678;9.158;2023-05-29T12:19:02;5.10;;;4.15;;
13432;SDS011;6789;47.678;9.158;2023-05-29T12:24:09;5.95;;;4.10;;
13432;SDS011;6789;47.678;9.158;2023-05-29T12:29:15;5.60;;;3.88;;
13432;SDS011;6789;47.678;9.158;2023-05-29T12:34:21;5.50;;;3.67;;
13432;SDS011;6789;47.678;9.158;2023-05-29T12:39:28;5.78;;;3.63;;
13432;SDS011;6789;47.678;9.158;2023-05-29T12:44:37;6.65;;;3.92;;
13432;SDS011;6789;47.678;9.158;2023-05-29T12:49:35;4.75;;;3.67;;
13432;SDS011;6789;47.678;9.158;2023-05-29T12:54:41;5.57;;;3.70;;
13432;SDS011;6789;47.678;9.158;2023-05-29T12:59:47;5.55;;;3.70;;
13432;SDS011;6789;47.678;9.158;2023-05-29T13:04:52;8.75;;;3.90;;
13432;SDS011;6789;47.678;9.158;2023-05-29T13:09:59;4.72;;;3.67;;
13432;SDS011;6789;47.678;9.158;2023-05-29T13:14:53;5.05;;;3.53;;
13432;SDS011;6789;47.678;9.158;2023-05-29T13:19:48;4.55;;;3.15;;
13432;SDS011;6789;47.678;9.158;2023-05-29T13:24:54;5.95;;;3.80;;
13432;SDS011;6789;47.678;9.158;2023-05-29T13:29:46;7.32;;;3.22;;
13432;SDS011;6789;47.678;9.158;2023-05-29T13:34:49;4.93;;;3.58;;
13432;SDS011;6789;47.678;9.158;2023-05-29T13:39:41;4.25;;;3.08;;
13432;SDS011;6789;47.678;9.158;2023-05-29T13:44:37;5.10;;;3.15;;
13432;SDS011;6789;47.678;9.158;2023-05-29T13:49:30;3.88;;;3.03;;
13432;SDS011;6789;47.678;9.158;2023-05-29T13:54:37;4.85;;;3.70;;
13432;SDS011;6789;47.678;9.158;2023-05-29T13:59:30;5.28;;;3.15;;
13432;SDS011;6789;47.678;9.158;2023-05-29T14:04:31;4.18;;;2.83;;
13432;SDS011;6789;47.678;9.158;2023-05-29T14:09:37;5.35;;;3.13;;
13432;SDS011;6789;47.678;9.158;2023-05-29T14:14:42;4.20;;;3.38;;
13432;SDS011;6789;47.678;9.158;2023-05-29T14:19:48;4.57;;;3.20;;
13432;SDS011;6789;47.678;9.158;2023-05-29T14:24:42;4.10;;;3.25;;
13432;SDS011;6789;47.678;9.158;2023-05-29T14:29:34;5.18;;;3.38;;
13432;SDS011;6789;47.678;9.158;2023-05-29T14:34:40;4.85;;;3.45;;
13432;SDS011;6789;47.678;9.158;2023-05-29T14:39:45;4.32;;;3.10;;
13432;SDS011;6789;47.678;9.158;2023-05-29T14:44:51;5.50;;;3.22;;
13432;SDS011;6789;47.678;9.158;2023-05-29T14:50:01;4.22;;;3.10;;
13432;SDS011;6789;47.678;9.158;2023-05-29T14:54:57;5.43;;;3.15;;
13432;SDS011;6789;47.678;9.158;2023-05-29T15:00:05;5.05;;;3.30;;
13432;SDS011;6789;47.678;9.158;2023-05-29T15:05:12;4.07;;;2.88;;
13432;SDS011;6789;47.678;9.158;2023-05-29T15:10:06;4.72;;;2.90;;
13432;SDS011;6789;47.678;9.158;2023-05-29T15:15:07;2.92;;;2.65;;
13432;SDS011;6789;47.678;9.158;2023-05-29T15:20:04;6.50;;;2.90;;
13432;SDS011;6789;47.678;9.158;2023-05-29T15:25:10;4.82;;;2.65;;
13432;SDS011;6789;47.678;9.158;2023-05-29T15:30:12;4.95;;;2.97;;
13432;SDS011;6789;47.678;9.158;2023-05-29T15:35:21;6.25;;;3.05;;
13432;SDS011;6789;47.678;9.158;2023-05-29T15:40:16;4.55;;;2.80;;
13432;SDS011;6789;47.678;9.158;2023-05-29T15:45:15;4.40;;;3.20;;
13432;SDS011;6789;47.678;9.158;2023-05-29T15:50:15;4.80;;;2.70;;
13432;SDS011;6789;47.678;9.158;2023-05-29T15:55:12;3.65;;;2.65;;
13432;SDS011;6789;47.678;9.158;2023-05-29T16:00:11;3.55;;;2.67;;
13432;SDS011;6789;47.678;9.158;2023-05-29T16:05:06;5.35;;;2.88;;
13432;SDS011;6789;47.678;9.158;2023-05-29T16:10:06;6.47;;;2.80;;
13432;SDS011;6789;47.678;9.158;2023-05-29T16:15:13;4.78;;;2.72;;
13432;SDS011;6789;47.678;9.158;2023-05-29T16:20:06;5.10;;;2.90;;
13432;SDS011;6789;47.678;9.158;2023-05-29T16:25:12;3.85;;;2.80;;
13432;SDS011;6789;47.678;9.158;2023-05-29T16:30:18;3.53;;;2.30;;
13432;SDS011;6789;47.678;9.158;2023-05-29T16:35:13;4.50;;;2.75;;
13432;SDS011;6789;47.678;9.158;2023-05-29T16:40:20;5.07;;;3.03;;
13432;SDS011;6789;47.678;9.158;2023-05-29T16:45:15;3.72;;;2.85;;
13432;SDS011;6789;47.678;9.158;2023-05-29T16:50:34;4.30;;;2.70;;
13432;SDS011;6789;47.678;9.158;2023-05-29T16:55:26;3.42;;;2.50;;
13432;SDS011;6789;47.678;9.158;2023-05-29T17:00:28;4.60;;;2.88;;
13432;SDS011;6789;47.678;9.158;2023-05-29T17:05:37;3.90;;;2.97;;
13432;SDS011;6789;47.678;9.158;2023-05-29T17:10:37;5.65;;;2.85;;
13432;SDS011;6789;47.678;9.158;2023-05-29T17:15:29;4.95;;;2.85;;
13432;SDS011;6789;47.678;9.158;2023-05-29T17:20:35;4.70;;;2.67;;
13432;SDS011;6789;47.678;9.158;2023-05-29T17:25:27;5.53;;;2.80;;
13432;SDS011;6789;47.678;9.158;2023-05-29T17:30:38;4.50;;;2.70;;
13432;SDS011;6789;47.678;9.158;2023-05-29T17:35:45;3.97;;;2.42;;
13432;SDS011;6789;47.678;9.158;2023-05-29T17:40:53;4.88;;;2.72;;
13432;SDS011;6789;47.678;9.158;2023-05-29T17:45:59;3.25;;;2.40;;
13432;SDS011;6789;47.678;9.158;2023-05-29T17:51:05;4.78;;;2.70;;
13432;SDS011;6789;47.678;9.158;2023-05-29T17:56:12;5.05;;;2.80;;
13432;SDS011;6789;47.678;9.158;2023-05-29T18:01:19;3.30;;;2.38;;
13432;SDS011;6789;47.678;9.158;2023-05-29T18:06:26;4.00;;;2.78;;
13432;SDS011;6789;47.678;9.158;2023-05-29T18:11:18;4.20;;;2.33;;
13432;SDS011;6789;47.678;9.158;2023-05-29T18:16:11;3.67;;;2.65;;
13432;SDS011;6789;47.678;9.158;2023-05-29T18:21:08;5.75;;;2.42;;
13432;SDS011;6789;47.678;9.158;2023-05-29T18:26:01;4.50;;;2.78;;
13432;SDS011;6789;47.678;9.158;2023-05-29T18:30:54;4.40;;;2.90;;
13432;SDS011;6789;47.678;9.158;2023-05-29T18:35:47;6.78;;;2.92;;
13432;SDS011;6789;47.678;9.158;2023-05-29T18:41:11;4.72;;;2.60;;
13432;SDS011;6789;47.678;9.158;2023-05-29T18:46:08;4.45;;;2.33;;
13432;SDS011;6789;47.678;9.158;2023-05-29T18:51:02;4.03;;;2.63;;
13432;SDS011;6789;47.678;9.158;2023-05-29T18:55:55;5.60;;;2.30;;
13432;SDS011;6789;47.678;9.158;2023-05-29T19:00:51;4.30;;;2.60;;
13432;SDS011;6789;47.678;9.158;2023-05-29T19:05:44;3.08;;;2.47;;
13432;SDS011;6789;47.678;9.158;2023-05-29T19:16:23;4.55;;;2.83;;
13432;SDS011;6789;47.678;9.158;2023-05-29T19:21:29;4.57;;;2.70;;
13432;SDS011;6789;47.678;9.158;2023-05-29T19:26:22;4.90;;;2.50;;
13432;SDS011;6789;47.678;9.158;2023-05-29T19:31:28;6.00;;;2.65;;
13432;SDS011;6789;47.678;9.158;2023-05-29T19:36:20;4.22;;;2.60;;
13432;SDS011;6789;47.678;9.158;2023-05-29T19:41:28;5.38;;;2.95;;
13432;SDS011;6789;47.678;9.158;2023-05-29T19:46:26;5.25;;;2.65;;
13432;SDS011;6789;47.678;9.158;2023-05-29T19:51:32;4.10;;;2.63;;
13432;SDS011;6789;47.678;9.158;2023-05-29T19:56:25;4.25;;;2.53;;
13432;SDS011;6789;47.678;9.158;2023-05-29T20:01:19;2.78;;;2.35;;
13432;SDS011;6789;47.678;9.158;2023-05-29T20:06:15;5.72;;;2.63;;
13432;SDS011;6789;47.678;9.158;2023-05-29T20:11:22;4.20;;;2.83;;
13432;SDS011;6789;47.678;9.158;2023-05-29T20:16:22;3.15;;;2.53;;
13432;SDS011;6789;47.678;9.158;2023-05-29T20:21:27;3.35;;;2.50;;
13432;SDS011;6789;47.678;9.158;2023-05-29T20:26:20;3.63;;;2.40;;
13432;SDS011;6789;47.678;9.158;2023-05-29T20:31:14;5.28;;;2.58;;
13432;SDS011;6789;47.678;9.158;2023-05-29T20:36:07;3.53;;;2.00;;
13432;SDS011;6789;47.678;9.158;2023-05-29T20:41:01;3.30;;;2.33;;
13432;SDS011;6789;47.678;9.158;2023-05-29T20:45:57;3.38;;;2.15;;
13432;SDS011;6789;47.678;9.158;2023-05-29T20:50:58;2.72;;;2.17;;
13432;SDS011;6789;47.678;9.158;2023-05-29T20:55:51;4.18;;;2.45;;
13432;SDS011;6789;47.678;9.158;2023-05-29T21:00:45;3.28;;;2.33;;
13432;SDS011;6789;47.678;9.158;2023-05-29T21:05:38;3.78;;;2.30;;
13432;SDS011;6789;47.678;9.158;2023-05-29T21:10:31;6.60;;;2.40;;
13432;SDS011;6789;47.678;9.158;2023-05-29T21:15:24;3.15;;;2.35;;
13432;SDS011;6789;47.678;9.158;2023-05-29T21:20:16;3.45;;;2.70;;
13432;SDS011;6789;47.678;9.158;2023-05-29T21:25:22;5.18;;;2.30;;
13432;SDS011;6789;47.678;9.158;2023-05-29T21:30:14;2.75;;;2.28;;
13432;SDS011;6789;47.678;9.158;2023-05-29T21:35:21;2.67;;;2.25;;
13432;SDS011;6789;47.678;9.158;2023-05-29T21:40:14;3.20;;;2.30;;
13432;SDS011;6789;47.678;9.158;2023-05-29T21:45:20;2.95;;;2.35;;
13432;SDS011;6789;47.678;9.158;2023-05-29T21:50:26;4.68;;;2.75;;
13432;SDS011;6789;47.678;9.158;2023-05-29T21:55:21;3.08;;;2.38;;
13432;SDS011;6789;47.678;9.158;2023-05-29T22:00:13;2.92;;;2.20;;
13432;SDS011;6789;47.678;9.158;2023-05-29T22:05:05;5.28;;;2.75;;
13432;SDS011;6789;47.678;9.158;2023-05-29T22:10:31;4.60;;;2.75;;
13432;SDS011;6789;47.678;9.158;2023-05-29T22:21:23;4.10;;;2.90;;
13432;SDS011;6789;47.678;9.158;2023-05-29T22:32:58;3.60;;;2.13;;
13432;SDS011;6789;47.678;9.158;2023-05-29T22:39:05;4.95;;;2.42;;
13432;SDS011;6789;47.678;9.158;2023-05-29T22:44:21;3.45;;;2.60;;
13432;SDS011;6789;47.678;9.158;2023-05-29T23:01:47;4.72;;;2.88;;
13432;SDS011;6789;47.678;9.158;2023-05-29T23:06:41;3.88;;;2.20;;
13432;SDS011;6789;47.678;9.158;2023-05-29T23:11:33;4.32;;;2.65;;
13432;SDS011;6789;47.678;9.158;2023-05-29T23:16:25;5.50;;;2.60;;
13432;SDS011;6789;47.678;9.158;2023-05-29T23:21:17;4.53;;;2.67;;
13432;SDS011;6789;47.678;9.158;2023-05-29T23:26:10;7.63;;;2.50;;
13432;SDS011;6789;47.678;9.158;2023-05-29T23:31:02;4.25;;;2.80;;
13432;SDS011;6789;47.678;9.158;2023-05-29T23:35:54;3.25;;;2.40;;
13432;SDS011;6789;47.678;9.158;2023-05-29T23:41:00;3.30;;;2.60;;
13432;SDS011;6789;47.678;9.158;2023-05-29T23:45:52;3.85;;;2.60;;
13432;SDS011;6789;47.678;9.158;2023-05-29T23:50:44;6.32;;;2.75;;
13432;SDS011;6789;47.678;9.158;2023-05-29T23:55:35;3.40;;;2.30;;
